createdAt,value
2018-08-31T00:01:31.696Z,15.90
2018-08-31T00:06:13.648Z,15.90
2018-08-31T00:10:26.940Z,15.80
2018-08-31T00:12:55.094Z,15.80
2018-08-31T00:15:23.232Z,15.70
2018-08-31T00:17:51.348Z,15.60
2018-08-31T00:20:19.511Z,15.60
2018-08-31T00:22:47.649Z,15.60
2018-08-31T00:25:27.241Z,15.60
2018-08-31T00:28:06.937Z,15.60
2018-08-31T00:30:46.585Z,15.60
2018-08-31T00:33:27.076Z,15.60
2018-08-31T00:38:13.136Z,15.60
2018-08-31T00:40:52.632Z,15.60
2018-08-31T00:43:37.706Z,15.50
2018-08-31T00:46:05.846Z,15.50
2018-08-31T00:48:33.969Z,15.40
2018-08-31T00:51:03.054Z,15.40
2018-08-31T00:53:31.254Z,15.40
2018-08-31T00:55:59.419Z,15.40
2018-08-31T00:58:27.574Z,15.40
2018-08-31T01:00:55.733Z,15.30
2018-08-31T01:03:23.899Z,15.30
2018-08-31T01:05:52.046Z,15.30
2018-08-31T01:08:20.282Z,15.30
2018-08-31T01:10:48.434Z,15.20
2018-08-31T01:13:16.653Z,15.30
2018-08-31T01:15:44.798Z,15.20
2018-08-31T01:18:12.948Z,15.20
2018-08-31T01:20:41.097Z,15.20
2018-08-31T01:23:09.264Z,15.20
2018-08-31T01:25:37.418Z,15.10
2018-08-31T01:28:05.568Z,15.10
2018-08-31T01:30:33.722Z,15.10
2018-08-31T01:33:01.905Z,15.10
2018-08-31T01:35:30.061Z,15.10
2018-08-31T01:37:58.238Z,15.00
2018-08-31T01:40:26.484Z,15.00
2018-08-31T01:42:54.701Z,15.00
2018-08-31T01:45:22.859Z,15.00
2018-08-31T01:47:51.054Z,15.00
2018-08-31T01:50:19.220Z,15.00
2018-08-31T01:52:47.524Z,15.00
2018-08-31T01:55:15.570Z,15.00
2018-08-31T01:57:43.730Z,15.00
2018-08-31T02:00:11.869Z,15.00
2018-08-31T02:02:39.998Z,15.00
2018-08-31T02:05:08.161Z,15.00
2018-08-31T02:07:36.298Z,15.00
2018-08-31T02:10:04.543Z,15.00
2018-08-31T02:12:32.685Z,15.00
2018-08-31T02:15:00.822Z,15.00
2018-08-31T02:17:28.967Z,15.00
2018-08-31T02:19:57.105Z,14.90
2018-08-31T02:22:25.242Z,14.90
2018-08-31T02:24:53.380Z,14.90
2018-08-31T02:27:21.506Z,14.90
2018-08-31T02:29:49.637Z,14.90
2018-08-31T02:32:17.770Z,14.80
2018-08-31T02:34:45.905Z,14.80
2018-08-31T02:37:14.053Z,14.80
2018-08-31T02:39:42.200Z,14.80
2018-08-31T02:42:10.333Z,14.70
2018-08-31T02:44:38.463Z,14.70
2018-08-31T02:47:06.589Z,14.70
2018-08-31T02:49:34.725Z,14.70
2018-08-31T02:52:02.950Z,14.60
2018-08-31T02:54:31.093Z,14.60
2018-08-31T02:56:59.247Z,14.60
2018-08-31T02:59:27.366Z,14.60
2018-08-31T03:01:55.518Z,14.60
2018-08-31T03:04:23.657Z,14.60
2018-08-31T03:06:52.039Z,14.50
2018-08-31T03:09:20.162Z,14.50
2018-08-31T03:11:48.310Z,14.50
2018-08-31T03:14:16.459Z,14.50
2018-08-31T03:16:44.586Z,14.50
2018-08-31T03:19:12.727Z,14.50
2018-08-31T03:21:40.862Z,14.50
2018-08-31T03:24:09.004Z,14.50
2018-08-31T03:26:37.162Z,14.50
2018-08-31T03:29:05.341Z,14.50
2018-08-31T03:31:33.474Z,14.50
2018-08-31T03:34:01.610Z,14.50
2018-08-31T03:36:29.771Z,14.50
2018-08-31T03:38:57.919Z,14.50
2018-08-31T03:41:26.057Z,14.50
2018-08-31T03:43:54.185Z,14.60
2018-08-31T03:46:22.314Z,14.50
2018-08-31T03:48:50.459Z,14.50
2018-08-31T03:51:18.662Z,14.50
2018-08-31T03:53:46.794Z,14.50
2018-08-31T03:56:14.938Z,14.50
2018-08-31T03:58:43.081Z,14.50
2018-08-31T04:01:11.309Z,14.50
2018-08-31T04:03:39.602Z,14.50
2018-08-31T04:06:07.813Z,14.50
2018-08-31T04:08:35.994Z,14.40
2018-08-31T04:11:04.218Z,14.40
2018-08-31T04:13:32.403Z,14.50
2018-08-31T04:16:00.545Z,14.40
2018-08-31T04:18:28.701Z,14.40
2018-08-31T04:20:56.840Z,14.40
2018-08-31T04:23:24.988Z,14.40
2018-08-31T04:25:53.150Z,14.40
2018-08-31T04:28:21.293Z,14.40
2018-08-31T04:30:49.454Z,14.40
2018-08-31T04:33:17.610Z,14.40
2018-08-31T04:35:45.762Z,14.40
2018-08-31T04:38:13.910Z,14.40
2018-08-31T04:40:42.083Z,14.40
2018-08-31T04:43:10.231Z,14.40
2018-08-31T04:45:38.389Z,14.40
2018-08-31T04:48:06.578Z,14.50
2018-08-31T04:50:34.762Z,14.40
2018-08-31T04:53:03.019Z,14.50
2018-08-31T04:55:31.187Z,14.50
2018-08-31T04:57:59.334Z,14.50
2018-08-31T05:00:27.486Z,14.50
2018-08-31T05:02:55.643Z,14.50
2018-08-31T05:05:23.846Z,14.50
2018-08-31T05:07:51.990Z,14.50
2018-08-31T05:10:20.174Z,14.50
2018-08-31T05:12:48.326Z,14.50
2018-08-31T05:15:16.458Z,14.60
2018-08-31T05:17:44.617Z,14.50
2018-08-31T05:20:12.749Z,14.50
2018-08-31T05:22:41.020Z,14.60
2018-08-31T05:25:09.150Z,14.60
2018-08-31T05:27:37.391Z,14.60
2018-08-31T05:30:06.055Z,14.60
2018-08-31T05:32:34.228Z,14.60
2018-08-31T05:35:02.369Z,14.60
2018-08-31T05:37:30.595Z,14.60
2018-08-31T05:39:58.736Z,14.60
2018-08-31T05:42:26.903Z,14.60
2018-08-31T05:44:55.057Z,14.70
2018-08-31T05:47:23.231Z,14.70
2018-08-31T05:49:51.429Z,14.70
2018-08-31T05:52:19.587Z,14.80
2018-08-31T05:54:47.836Z,14.80
2018-08-31T05:57:15.962Z,14.80
2018-08-31T05:59:44.099Z,14.80
2018-08-31T06:02:12.314Z,14.90
2018-08-31T06:04:40.364Z,14.90
2018-08-31T06:07:08.558Z,14.90
2018-08-31T06:09:36.702Z,14.90
2018-08-31T06:12:04.845Z,15.00
2018-08-31T06:14:32.960Z,15.00
2018-08-31T06:17:01.305Z,15.00
2018-08-31T06:19:29.480Z,15.00
2018-08-31T06:21:57.610Z,15.10
2018-08-31T06:24:25.762Z,15.10
2018-08-31T06:26:53.902Z,15.20
2018-08-31T06:29:22.067Z,15.20
2018-08-31T06:31:50.198Z,15.20
2018-08-31T06:34:18.385Z,15.30
2018-08-31T06:36:46.531Z,15.40
2018-08-31T06:39:14.656Z,15.40
2018-08-31T06:41:43.658Z,15.50
2018-08-31T06:44:11.796Z,15.60
2018-08-31T06:46:39.977Z,15.70
2018-08-31T06:49:08.125Z,15.70
2018-08-31T06:51:36.333Z,15.80
2018-08-31T06:54:04.419Z,15.90
2018-08-31T06:56:32.550Z,16.00
2018-08-31T06:59:00.681Z,16.20
2018-08-31T07:01:28.818Z,16.30
2018-08-31T07:03:57.003Z,16.40
2018-08-31T07:06:25.085Z,16.40
2018-08-31T07:08:53.229Z,16.50
2018-08-31T07:11:21.370Z,16.50
2018-08-31T07:13:49.603Z,16.50
2018-08-31T07:16:17.740Z,16.60
2018-08-31T07:18:45.861Z,16.60
2018-08-31T07:21:14.186Z,16.60
2018-08-31T07:23:42.556Z,16.60
2018-08-31T07:26:10.761Z,16.60
2018-08-31T07:28:38.838Z,16.70
2018-08-31T07:31:07.029Z,16.70
2018-08-31T07:33:35.193Z,16.70
2018-08-31T07:36:03.353Z,16.70
2018-08-31T07:38:31.498Z,16.70
2018-08-31T07:40:59.649Z,16.80
2018-08-31T07:43:27.790Z,16.80
2018-08-31T07:45:55.934Z,16.80
2018-08-31T07:48:24.065Z,16.80
2018-08-31T07:50:52.258Z,16.80
2018-08-31T07:53:20.763Z,16.90
2018-08-31T07:55:48.902Z,16.90
2018-08-31T07:58:17.051Z,17.00
2018-08-31T08:00:45.230Z,17.00
2018-08-31T08:03:13.478Z,17.10
2018-08-31T08:05:41.992Z,17.20
2018-08-31T08:08:10.790Z,17.20
2018-08-31T08:10:39.039Z,17.30
2018-08-31T08:13:07.407Z,17.30
2018-08-31T08:15:35.557Z,17.40
2018-08-31T08:18:03.704Z,17.40
2018-08-31T08:20:32.034Z,17.40
2018-08-31T08:23:00.188Z,17.50
2018-08-31T08:25:28.392Z,17.60
2018-08-31T08:27:56.540Z,17.60
2018-08-31T08:30:25.061Z,17.70
2018-08-31T08:32:53.226Z,17.70
2018-08-31T08:35:21.374Z,17.80
2018-08-31T08:37:49.553Z,17.80
2018-08-31T08:40:17.697Z,17.90
2018-08-31T08:42:45.871Z,17.90
2018-08-31T08:45:14.074Z,18.00
2018-08-31T08:47:42.225Z,18.00
2018-08-31T08:50:10.431Z,18.10
2018-08-31T08:52:38.916Z,18.10
2018-08-31T08:55:07.135Z,18.10
2018-08-31T08:57:35.258Z,18.10
2018-08-31T09:00:03.393Z,18.10
2018-08-31T09:02:31.589Z,18.10
2018-08-31T09:04:59.727Z,18.20
2018-08-31T09:07:27.890Z,18.20
2018-08-31T09:09:56.026Z,18.20
2018-08-31T09:12:24.280Z,18.20
2018-08-31T09:14:52.328Z,18.20
2018-08-31T09:17:20.554Z,18.20
2018-08-31T09:19:48.687Z,18.20
2018-08-31T09:22:16.810Z,18.20
2018-08-31T09:24:45.024Z,18.30
2018-08-31T09:27:13.111Z,18.20
2018-08-31T09:29:41.255Z,18.30
2018-08-31T09:32:14.893Z,18.30
2018-08-31T09:34:48.402Z,18.30
2018-08-31T09:37:18.127Z,18.30
2018-08-31T09:39:46.383Z,18.30
2018-08-31T09:42:14.514Z,18.30
2018-08-31T09:44:42.731Z,18.40
2018-08-31T09:47:11.378Z,18.40
2018-08-31T09:49:39.549Z,18.40
2018-08-31T09:52:07.682Z,18.50
2018-08-31T09:54:35.822Z,18.50
2018-08-31T09:57:03.982Z,18.50
2018-08-31T09:59:32.114Z,18.50
2018-08-31T10:02:06.239Z,18.60
2018-08-31T10:04:34.390Z,18.60
2018-08-31T10:07:02.561Z,18.60
2018-08-31T10:09:30.686Z,18.70
2018-08-31T10:11:58.824Z,18.70
2018-08-31T10:14:26.950Z,18.70
2018-08-31T10:16:55.090Z,18.80
2018-08-31T10:19:23.238Z,18.80
2018-08-31T10:21:51.387Z,18.90
2018-08-31T10:24:19.940Z,18.90
2018-08-31T10:26:48.114Z,19.00
2018-08-31T10:29:16.243Z,19.00
2018-08-31T10:31:44.392Z,19.00
2018-08-31T10:34:12.897Z,19.10
2018-08-31T10:36:41.050Z,19.20
2018-08-31T10:39:12.549Z,19.20
2018-08-31T10:41:40.826Z,19.20
2018-08-31T10:44:09.099Z,19.30
2018-08-31T10:46:37.373Z,19.30
2018-08-31T10:49:05.650Z,19.40
2018-08-31T10:51:34.240Z,19.40
2018-08-31T10:54:02.394Z,19.50
2018-08-31T10:56:30.568Z,19.50
2018-08-31T10:58:58.702Z,19.50
2018-08-31T11:01:26.849Z,19.60
2018-08-31T11:03:55.012Z,19.70
2018-08-31T11:06:23.163Z,19.80
2018-08-31T11:08:51.322Z,19.80
2018-08-31T11:11:19.483Z,19.80
2018-08-31T11:13:47.613Z,19.90
2018-08-31T11:16:15.770Z,20.00
2018-08-31T11:18:43.917Z,20.00
2018-08-31T11:21:12.078Z,20.00
2018-08-31T11:23:40.272Z,20.00
2018-08-31T11:26:08.458Z,20.00
2018-08-31T11:28:36.635Z,20.00
2018-08-31T11:31:04.786Z,20.00
2018-08-31T11:33:32.946Z,20.00
2018-08-31T11:36:01.111Z,20.00
2018-08-31T11:38:29.253Z,20.00
2018-08-31T11:40:57.414Z,20.00
2018-08-31T11:43:25.575Z,20.00
2018-08-31T11:45:53.726Z,20.00
2018-08-31T11:48:21.882Z,20.00
2018-08-31T11:50:50.082Z,20.00
2018-08-31T11:53:18.345Z,20.00
2018-08-31T11:55:46.524Z,20.00
2018-08-31T11:58:14.814Z,20.00
2018-08-31T12:00:42.990Z,20.00
2018-08-31T12:03:11.297Z,20.00
2018-08-31T12:05:39.466Z,20.00
2018-08-31T12:08:07.690Z,20.00
2018-08-31T12:10:35.886Z,20.00
2018-08-31T12:13:04.049Z,20.10
2018-08-31T12:15:32.227Z,20.10
2018-08-31T12:18:00.377Z,20.10
2018-08-31T12:20:28.537Z,20.10
2018-08-31T12:22:56.720Z,20.10
2018-08-31T12:25:25.005Z,20.10
2018-08-31T12:27:53.187Z,20.10
2018-08-31T12:30:21.322Z,20.20
2018-08-31T12:32:49.475Z,20.20
2018-08-31T12:35:18.089Z,20.20
2018-08-31T12:37:46.292Z,20.20
2018-08-31T12:40:14.445Z,20.30
2018-08-31T12:42:42.591Z,20.30
2018-08-31T12:45:10.745Z,20.30
2018-08-31T12:47:39.166Z,20.40
2018-08-31T12:50:07.322Z,20.40
2018-08-31T12:52:35.474Z,20.50
2018-08-31T12:55:05.964Z,20.50
2018-08-31T12:57:34.325Z,20.50
2018-08-31T13:00:02.534Z,20.50
2018-08-31T13:02:31.883Z,20.50
2018-08-31T13:05:00.682Z,20.60
2018-08-31T13:07:29.042Z,20.60
2018-08-31T13:09:57.213Z,20.50
2018-08-31T13:12:25.662Z,20.50
2018-08-31T13:14:53.947Z,20.50
2018-08-31T13:17:22.097Z,20.50
2018-08-31T13:19:50.281Z,20.50
2018-08-31T13:22:18.387Z,20.50
2018-08-31T13:24:46.534Z,20.40
2018-08-31T13:27:14.658Z,20.40
2018-08-31T13:29:43.024Z,20.40
2018-08-31T13:32:11.207Z,20.40
2018-08-31T13:34:39.511Z,20.40
2018-08-31T13:37:07.756Z,20.30
2018-08-31T13:39:39.110Z,20.30
2018-08-31T13:42:07.268Z,20.30
2018-08-31T13:44:35.598Z,20.20
2018-08-31T13:47:03.815Z,20.20
2018-08-31T13:49:32.057Z,20.20
2018-08-31T13:52:00.242Z,20.20
2018-08-31T13:54:28.686Z,20.20
2018-08-31T13:56:56.853Z,20.20
2018-08-31T13:59:25.004Z,20.20
2018-08-31T14:01:53.166Z,20.20
2018-08-31T14:04:21.315Z,20.20
2018-08-31T14:06:49.464Z,20.10
2018-08-31T14:09:17.625Z,20.20
2018-08-31T14:11:45.798Z,20.20
2018-08-31T14:14:14.017Z,20.20
2018-08-31T14:16:42.184Z,20.20
2018-08-31T14:19:10.553Z,20.30
2018-08-31T14:21:39.358Z,20.30
2018-08-31T14:24:07.830Z,20.30
2018-08-31T14:26:36.214Z,20.40
2018-08-31T14:29:04.368Z,20.40
2018-08-31T14:31:32.651Z,20.40
2018-08-31T14:34:00.866Z,20.40
2018-08-31T14:36:29.061Z,20.40
2018-08-31T14:38:57.278Z,20.50
2018-08-31T14:41:25.461Z,20.50
2018-08-31T14:43:54.460Z,20.50
2018-08-31T14:46:22.561Z,20.50
2018-08-31T14:48:50.789Z,20.50
2018-08-31T14:51:18.947Z,20.50
2018-08-31T14:53:47.112Z,20.50
2018-08-31T14:56:15.268Z,20.50
2018-08-31T14:58:43.629Z,20.50
2018-08-31T15:01:11.707Z,20.50
2018-08-31T15:03:39.870Z,20.50
2018-08-31T15:06:08.014Z,20.40
2018-08-31T15:08:36.175Z,20.40
2018-08-31T15:11:04.530Z,20.40
2018-08-31T15:13:32.770Z,20.40
2018-08-31T15:16:00.989Z,20.40
2018-08-31T15:18:29.174Z,20.40
2018-08-31T15:20:57.327Z,20.40
2018-08-31T15:23:25.498Z,20.40
2018-08-31T15:25:53.621Z,20.40
2018-08-31T15:28:21.806Z,20.40
2018-08-31T15:30:51.433Z,20.40
2018-08-31T15:33:19.565Z,20.30
2018-08-31T15:35:47.731Z,20.30
2018-08-31T15:38:15.909Z,20.30
2018-08-31T15:40:44.066Z,20.30
2018-08-31T15:43:12.223Z,20.30
2018-08-31T15:45:40.373Z,20.30
2018-08-31T15:48:08.530Z,20.30
2018-08-31T15:50:36.720Z,20.40
2018-08-31T15:53:04.917Z,20.40
2018-08-31T15:55:33.102Z,20.40
2018-08-31T15:58:01.264Z,20.40
2018-08-31T16:00:29.434Z,20.50
2018-08-31T16:02:57.606Z,20.50
2018-08-31T16:05:25.762Z,20.50
2018-08-31T16:07:53.936Z,20.60
2018-08-31T16:10:22.096Z,20.60
2018-08-31T16:12:50.362Z,20.60
2018-08-31T16:15:18.512Z,20.70
2018-08-31T16:17:46.682Z,20.70
2018-08-31T16:20:14.902Z,20.60
2018-08-31T16:22:43.041Z,20.60
2018-08-31T16:25:11.211Z,20.60
2018-08-31T16:27:39.569Z,20.60
2018-08-31T16:30:07.746Z,20.50
2018-08-31T16:32:35.910Z,20.50
2018-08-31T16:35:04.069Z,20.40
2018-08-31T16:37:32.246Z,20.30
2018-08-31T16:40:00.429Z,20.20
2018-08-31T16:42:28.592Z,20.20
2018-08-31T16:44:56.914Z,20.10
2018-08-31T16:47:25.807Z,20.10
2018-08-31T16:49:53.942Z,20.00
2018-08-31T16:52:22.110Z,20.00
2018-08-31T16:54:50.325Z,20.00
2018-08-31T16:57:18.486Z,19.90
2018-08-31T16:59:46.723Z,19.90
2018-08-31T17:02:14.876Z,19.80
2018-08-31T17:04:43.054Z,19.80
2018-08-31T17:07:11.203Z,19.70
2018-08-31T17:09:39.449Z,19.70
2018-08-31T17:12:07.609Z,19.70
2018-08-31T17:14:35.762Z,19.60
2018-08-31T17:17:03.925Z,19.60
2018-08-31T17:19:32.121Z,19.60
2018-08-31T17:22:00.283Z,19.50
2018-08-31T17:24:28.514Z,19.50
2018-08-31T17:27:02.128Z,19.40
2018-08-31T17:29:35.923Z,19.40
2018-08-31T17:32:09.436Z,19.40
2018-08-31T17:34:43.143Z,19.40
2018-08-31T17:37:16.683Z,19.30
2018-08-31T17:39:44.838Z,19.30
2018-08-31T17:42:13.049Z,19.20
2018-08-31T17:44:41.197Z,19.20
2018-08-31T17:47:09.406Z,19.20
2018-08-31T17:49:37.561Z,19.20
2018-08-31T17:52:05.705Z,19.10
2018-08-31T17:54:33.870Z,19.10
2018-08-31T17:57:02.027Z,19.10
2018-08-31T17:59:30.165Z,19.00
2018-08-31T18:01:58.322Z,19.00
2018-08-31T18:04:26.500Z,19.00
2018-08-31T18:06:54.674Z,19.00
2018-08-31T18:09:22.902Z,18.90
2018-08-31T18:11:50.993Z,18.90
2018-08-31T18:14:19.188Z,18.90
2018-08-31T18:16:47.346Z,18.90
2018-08-31T18:19:15.513Z,18.80
2018-08-31T18:21:43.774Z,18.80
2018-08-31T18:24:11.932Z,18.80
2018-08-31T18:26:40.109Z,18.70
2018-08-31T18:29:08.261Z,18.70
2018-08-31T18:31:36.563Z,18.70
2018-08-31T18:34:04.719Z,18.70
2018-08-31T18:36:32.874Z,18.60
2018-08-31T18:39:01.029Z,18.60
2018-08-31T18:41:29.184Z,18.60
2018-08-31T18:43:57.342Z,18.60
2018-08-31T18:46:25.789Z,18.50
2018-08-31T18:48:53.867Z,18.50
2018-08-31T18:51:22.021Z,18.50
2018-08-31T18:53:50.173Z,18.40
2018-08-31T18:56:18.328Z,18.40
2018-08-31T18:58:46.487Z,18.40
2018-08-31T19:01:14.642Z,18.30
2018-08-31T19:03:42.810Z,18.30
2018-08-31T19:06:11.161Z,18.30
2018-08-31T19:08:39.322Z,18.30
2018-08-31T19:11:07.471Z,18.30
2018-08-31T19:13:35.630Z,18.20
2018-08-31T19:16:03.774Z,18.20
2018-08-31T19:18:31.950Z,18.20
2018-08-31T19:21:00.091Z,18.20
2018-08-31T19:23:28.253Z,18.20
2018-08-31T19:25:56.401Z,18.20
2018-08-31T19:28:24.553Z,18.20
2018-08-31T19:30:52.805Z,18.10
2018-08-31T19:33:20.990Z,18.10
2018-08-31T19:35:49.136Z,18.10
2018-08-31T19:38:17.301Z,18.10
2018-08-31T19:40:45.445Z,18.10
2018-08-31T19:43:13.633Z,18.10
2018-08-31T19:45:41.790Z,18.10
2018-08-31T19:48:09.949Z,18.10
2018-08-31T19:50:38.302Z,18.10
2018-08-31T19:53:06.666Z,18.10
2018-08-31T19:55:34.953Z,18.00
2018-08-31T19:58:03.137Z,18.00
2018-08-31T20:00:31.275Z,18.00
2018-08-31T20:02:59.413Z,18.00
2018-08-31T20:05:27.565Z,18.00
2018-08-31T20:07:55.694Z,18.00
2018-08-31T20:10:23.945Z,18.00
2018-08-31T20:12:52.079Z,18.00
2018-08-31T20:15:20.229Z,18.00
2018-08-31T20:17:48.510Z,18.00
2018-08-31T20:20:16.630Z,18.00
2018-08-31T20:22:44.753Z,18.00
2018-08-31T20:25:12.886Z,18.00
2018-08-31T20:27:41.046Z,18.00
2018-08-31T20:30:09.185Z,18.00
2018-08-31T20:32:37.333Z,18.00
2018-08-31T20:35:05.488Z,18.00
2018-08-31T20:37:33.617Z,18.00
2018-08-31T20:40:01.780Z,17.90
2018-08-31T20:42:29.950Z,18.00
2018-08-31T20:44:58.113Z,18.00
2018-08-31T20:47:26.268Z,17.90
2018-08-31T20:49:54.387Z,17.90
2018-08-31T20:52:22.522Z,17.90
2018-08-31T20:54:50.675Z,17.90
2018-08-31T20:57:18.797Z,17.90
2018-08-31T20:59:46.929Z,17.90
2018-08-31T21:02:15.092Z,17.90
2018-08-31T21:04:43.261Z,17.90
2018-08-31T21:07:11.409Z,17.90
2018-08-31T21:09:39.553Z,17.90
2018-08-31T21:12:07.691Z,17.90
2018-08-31T21:14:35.838Z,17.90
2018-08-31T21:17:03.990Z,17.90
2018-08-31T21:19:32.154Z,17.80
2018-08-31T21:22:00.277Z,17.80
2018-08-31T21:24:28.415Z,17.80
2018-08-31T21:26:56.555Z,17.80
2018-08-31T21:29:24.702Z,17.80
2018-08-31T21:31:52.836Z,17.80
2018-08-31T21:34:21.035Z,17.70
2018-08-31T21:36:49.265Z,17.70
2018-08-31T21:39:17.417Z,17.70
2018-08-31T21:41:45.668Z,17.70
2018-08-31T21:44:13.788Z,17.70
2018-08-31T21:46:41.929Z,17.70
2018-08-31T21:49:10.070Z,17.60
2018-08-31T21:51:38.269Z,17.60
2018-08-31T21:54:06.458Z,17.60
2018-08-31T21:56:34.637Z,17.60
2018-08-31T21:59:02.797Z,17.60
2018-08-31T22:01:36.209Z,17.50
2018-08-31T22:04:04.362Z,17.50
2018-08-31T22:06:32.613Z,17.50
2018-08-31T22:09:00.770Z,17.50
2018-08-31T22:11:28.917Z,17.40
2018-08-31T22:13:57.072Z,17.40
2018-08-31T22:16:25.221Z,17.40
2018-08-31T22:18:53.374Z,17.40
2018-08-31T22:21:21.551Z,17.40
2018-08-31T22:23:49.718Z,17.40
2018-08-31T22:26:17.893Z,17.30
2018-08-31T22:28:46.045Z,17.30
2018-08-31T22:31:14.202Z,17.30
2018-08-31T22:33:42.410Z,17.30
2018-08-31T22:36:10.597Z,17.20
2018-08-31T22:38:38.761Z,17.20
2018-08-31T22:41:06.913Z,17.20
2018-08-31T22:43:40.439Z,17.10
2018-08-31T22:46:08.560Z,17.10
2018-08-31T22:48:36.711Z,17.10
2018-08-31T22:51:04.904Z,17.10
2018-08-31T22:53:33.021Z,17.10
2018-08-31T22:56:01.153Z,17.00
2018-08-31T22:58:29.318Z,17.00
2018-08-31T23:00:57.441Z,17.00
2018-08-31T23:03:25.579Z,16.90
2018-08-31T23:05:53.843Z,16.90
2018-08-31T23:08:21.982Z,16.90
2018-08-31T23:10:50.122Z,16.90
2018-08-31T23:13:18.308Z,16.80
2018-08-31T23:15:46.399Z,16.80
2018-08-31T23:18:14.524Z,16.80
2018-08-31T23:20:42.751Z,16.80
2018-08-31T23:23:16.433Z,16.80
2018-08-31T23:25:50.597Z,16.80
2018-08-31T23:28:19.910Z,16.80
2018-08-31T23:30:48.071Z,16.80
2018-08-31T23:33:16.550Z,16.70
2018-08-31T23:35:44.904Z,16.70
2018-08-31T23:38:13.086Z,16.70
2018-08-31T23:40:41.238Z,16.70
2018-08-31T23:43:09.360Z,16.60
2018-08-31T23:45:37.509Z,16.60
2018-08-31T23:48:05.646Z,16.60
2018-08-31T23:50:33.790Z,16.60
2018-08-31T23:53:01.928Z,16.60
2018-08-31T23:55:30.057Z,16.50
2018-08-31T23:57:58.250Z,16.50
